Time;durP1;ratioP1;P1;durP2;ratioP2;P2;SDS_P1;SDS_P2;PMS_P1;PMS_P2;Temp;Humidity;BMP_temperature;BMP_pressure;BME280_temperature;BME280_humidity;BME280_pressure;Samples;Min_cycle;Max_cycle;Signal;HPM_P1;HPM_P2
2023/12/01 00:02:14;;;;;;;1.73;1.63;;;16.70;65.60;;;;;;4950895;28;20057;-78
2023/12/01 00:04:39;;;;;;;1.25;1.25;;;16.70;65.60;;;;;;4954343;28;20513;-78
2023/12/01 00:07:05;;;;;;;1.60;1.50;;;16.70;65.80;;;;;;4950761;28;20051;-78
2023/12/01 00:09:31;;;;;;;1.35;1.30;;;16.60;65.70;;;;;;4951519;28;20506;-78
2023/12/01 00:11:57;;;;;;;1.52;1.42;;;16.60;65.70;;;;;;4952027;28;20138;-78
2023/12/01 00:14:23;;;;;;;1.40;1.30;;;16.60;65.70;;;;;;4953490;28;20050;-78
2023/12/01 00:16:48;;;;;;;1.40;1.40;;;16.60;65.80;;;;;;4954977;28;20176;-78
2023/12/01 00:19:14;;;;;;;1.13;1.13;;;16.60;65.80;;;;;;4950635;28;20102;-78
2023/12/01 00:21:39;;;;;;;1.98;1.88;;;16.60;65.90;;;;;;4937950;28;20079;-78
2023/12/01 00:24:05;;;;;;;1.30;1.20;;;16.60;65.80;;;;;;4953588;28;20548;-78
2023/12/01 00:26:31;;;;;;;1.50;1.40;;;16.60;65.80;;;;;;4956023;28;20041;-78
2023/12/01 00:28:56;;;;;;;1.70;1.60;;;16.60;65.70;;;;;;4952475;28;20046;-78
2023/12/01 00:31:22;;;;;;;1.73;1.63;;;16.60;66.10;;;;;;4954589;28;20031;-78
2023/12/01 00:33:47;;;;;;;1.65;1.55;;;16.50;65.80;;;;;;4938966;28;20142;-77
2023/12/01 00:36:13;;;;;;;1.40;1.40;;;16.50;65.70;;;;;;4948420;28;20046;-77
2023/12/01 00:38:39;;;;;;;1.70;1.60;;;16.50;65.80;;;;;;4969565;28;21051;-77
2023/12/01 00:41:05;;;;;;;1.50;1.48;;;16.50;65.80;;;;;;4956123;28;20043;-77
2023/12/01 00:43:30;;;;;;;1.50;1.50;;;16.50;65.70;;;;;;4954011;28;20150;-78
2023/12/01 00:45:56;;;;;;;1.42;1.40;;;16.50;65.90;;;;;;4953423;28;20442;-77
2023/12/01 00:48:21;;;;;;;1.70;1.60;;;16.50;66.60;;;;;;4957101;28;20163;-77
2023/12/01 00:50:47;;;;;;;1.40;1.40;;;16.50;66.70;;;;;;4955886;28;20034;-78
2023/12/01 00:53:12;;;;;;;1.45;1.35;;;16.40;65.80;;;;;;4937290;28;20041;-78
2023/12/01 00:55:38;;;;;;;1.50;1.40;;;16.40;65.80;;;;;;4949533;28;20065;-78
2023/12/01 00:58:04;;;;;;;1.70;1.60;;;16.50;65.90;;;;;;4934350;28;20786;-78
2023/12/01 01:00:30;;;;;;;1.40;1.30;;;16.40;65.90;;;;;;4956177;28;20067;-78
2023/12/01 01:02:55;;;;;;;1.65;1.60;;;16.40;65.90;;;;;;4954042;28;20057;-78
2023/12/01 01:05:21;;;;;;;1.30;1.30;;;16.40;66.00;;;;;;4952294;28;20050;-78
2023/12/01 01:07:47;;;;;;;1.42;1.42;;;16.40;66.00;;;;;;4952570;28;20054;-78
2023/12/01 01:10:12;;;;;;;1.67;1.33;;;16.40;65.60;;;;;;4956826;28;20098;-78
2023/12/01 01:12:38;;;;;;;1.48;1.38;;;16.40;65.90;;;;;;4952097;28;20054;-78
2023/12/01 01:15:04;;;;;;;1.40;1.40;;;16.40;65.90;;;;;;4951619;28;20775;-78
2023/12/01 01:17:33;;;;;;;1.80;1.70;;;16.40;65.90;;;;;;4937172;28;20062;-80
2023/12/01 01:19:59;;;;;;;1.20;1.10;;;16.40;65.70;;;;;;4968351;28;20051;-79
2023/12/01 01:22:25;;;;;;;1.30;1.30;;;16.40;66.00;;;;;;4952458;28;20053;-79
2023/12/01 01:24:51;;;;;;;1.48;1.48;;;16.40;65.50;;;;;;4946341;28;20055;-79
2023/12/01 01:27:17;;;;;;;1.40;1.30;;;16.30;66.00;;;;;;4952506;28;20054;-77
2023/12/01 01:29:43;;;;;;;1.48;1.40;;;16.30;65.90;;;;;;4955296;28;20420;-77
2023/12/01 01:32:09;;;;;;;1.13;1.13;;;16.30;65.70;;;;;;4951051;28;20046;-78
2023/12/01 01:34:34;;;;;;;1.10;1.10;;;16.30;65.40;;;;;;4964195;28;20058;-78
2023/12/01 01:37:00;;;;;;;1.55;1.45;;;16.30;65.60;;;;;;4947431;28;20046;-78
2023/12/01 01:39:26;;;;;;;1.33;1.30;;;16.30;65.50;;;;;;4950292;28;20595;-78
2023/12/01 01:41:53;;;;;;;1.48;1.38;;;16.30;65.50;;;;;;4951626;28;20440;-78
2023/12/01 01:44:18;;;;;;;1.33;1.30;;;16.30;65.60;;;;;;4954272;28;20055;-78
2023/12/01 01:46:45;;;;;;;1.55;1.45;;;16.30;65.60;;;;;;4968713;28;20100;-78
2023/12/01 01:49:11;;;;;;;1.30;1.30;;;16.30;65.40;;;;;;4950959;28;20057;-78
2023/12/01 01:51:36;;;;;;;1.35;1.25;;;16.30;65.70;;;;;;4948104;28;20484;-78
2023/12/01 01:54:02;;;;;;;1.23;1.23;;;16.30;65.70;;;;;;4933728;28;20165;-78
2023/12/01 01:56:29;;;;;;;1.23;1.20;;;16.30;65.40;;;;;;4952156;28;27922;-78
2023/12/01 01:58:54;;;;;;;1.05;1.05;;;16.30;65.70;;;;;;4950479;28;20469;-78
2023/12/01 02:01:22;;;;;;;1.20;1.20;;;16.30;65.50;;;;;;4951627;28;20062;-77
2023/12/01 02:03:47;;;;;;;1.70;1.60;;;16.30;65.40;;;;;;4935789;28;20137;-78
2023/12/01 02:06:13;;;;;;;1.60;1.50;;;16.30;66.20;;;;;;4947193;28;20467;-77
2023/12/01 02:08:39;;;;;;;1.13;1.13;;;16.30;65.50;;;;;;4952309;28;20732;-77
2023/12/01 02:11:05;;;;;;;1.30;1.30;;;16.30;65.50;;;;;;4952367;28;20062;-78
2023/12/01 02:13:30;;;;;;;1.33;1.33;;;16.20;65.50;;;;;;4953983;28;21408;-78
2023/12/01 02:15:56;;;;;;;1.40;1.30;;;16.20;65.60;;;;;;4947007;28;20051;-78
2023/12/01 02:18:22;;;;;;;1.15;1.15;;;16.20;65.50;;;;;;4951860;28;20047;-78
2023/12/01 02:20:48;;;;;;;1.40;1.30;;;16.20;65.50;;;;;;4951176;28;20051;-78
2023/12/01 02:23:13;;;;;;;1.33;1.30;;;16.20;65.50;;;;;;4952191;28;20051;-78
2023/12/01 02:25:39;;;;;;;1.58;1.48;;;16.20;65.50;;;;;;4951210;28;20050;-78
2023/12/01 02:28:04;;;;;;;1.52;1.35;;;16.20;65.60;;;;;;4950501;28;20066;-77
2023/12/01 02:30:30;;;;;;;1.30;1.30;;;16.20;65.50;;;;;;4949263;28;20050;-77
2023/12/01 02:32:55;;;;;;;1.45;1.45;;;16.20;65.60;;;;;;4952101;28;20043;-78
2023/12/01 02:35:22;;;;;;;0.93;0.93;;;16.20;65.70;;;;;;4955422;28;21468;-77
2023/12/01 02:37:48;;;;;;;1.23;1.23;;;16.20;65.60;;;;;;4950999;28;20109;-78
2023/12/01 02:40:16;;;;;;;1.50;1.50;;;16.20;65.60;;;;;;4948730;28;20416;-78
2023/12/01 02:42:49;;;;;;;1.05;1.05;;;16.20;65.90;;;;;;4951262;28;20051;-78
2023/12/01 02:45:15;;;;;;;1.40;1.40;;;16.20;65.70;;;;;;4952313;28;20054;-78
2023/12/01 02:47:40;;;;;;;1.42;1.30;;;16.10;65.60;;;;;;4954220;28;20043;-78
2023/12/01 02:50:09;;;;;;;1.30;1.30;;;16.20;66.40;;;;;;4928393;28;21828;-78
2023/12/01 02:52:36;;;;;;;1.33;1.30;;;16.20;65.80;;;;;;4951423;28;20115;-78
2023/12/01 02:55:02;;;;;;;1.10;1.10;;;16.20;65.70;;;;;;4947869;28;20046;-77
2023/12/01 02:57:27;;;;;;;1.45;1.35;;;16.10;65.70;;;;;;4949819;28;20042;-77
2023/12/01 02:59:53;;;;;;;1.02;1.02;;;16.10;65.70;;;;;;4964827;28;20580;-77
2023/12/01 03:02:19;;;;;;;1.10;1.10;;;16.10;65.60;;;;;;4918241;28;21878;-78
2023/12/01 03:04:44;;;;;;;1.10;1.10;;;16.10;66.10;;;;;;4950615;28;20055;-78
2023/12/01 03:07:10;;;;;;;1.20;1.20;;;16.10;65.70;;;;;;4962550;28;20050;-77
2023/12/01 03:09:36;;;;;;;1.00;1.00;;;16.10;66.50;;;;;;4964653;28;20034;-77
2023/12/01 03:12:03;;;;;;;1.20;1.20;;;16.10;65.70;;;;;;4964949;28;20130;-77
2023/12/01 03:14:28;;;;;;;1.02;1.02;;;16.10;65.70;;;;;;4966429;28;20073;-78
2023/12/01 03:16:56;;;;;;;1.02;1.02;;;16.10;65.60;;;;;;4967337;28;20513;-78
2023/12/01 03:19:22;;;;;;;1.20;1.20;;;16.10;65.70;;;;;;4950768;28;20070;-78
2023/12/01 03:21:47;;;;;;;1.17;1.17;;;16.10;65.70;;;;;;4967438;28;20509;-78
2023/12/01 03:24:13;;;;;;;1.00;1.00;;;16.10;65.80;;;;;;4964491;28;20049;-78
2023/12/01 03:26:39;;;;;;;0.90;0.90;;;16.10;65.70;;;;;;4964094;28;20644;-78
2023/12/01 03:29:04;;;;;;;1.20;1.20;;;16.10;65.70;;;;;;4962007;28;20434;-78
2023/12/01 03:31:30;;;;;;;1.27;1.20;;;16.10;65.70;;;;;;4967608;28;20479;-78
2023/12/01 03:33:55;;;;;;;1.10;1.10;;;16.10;65.70;;;;;;4962222;28;20083;-78
2023/12/01 03:36:23;;;;;;;1.73;1.30;;;16.10;65.70;;;;;;4982658;28;20045;-78
2023/12/01 03:38:49;;;;;;;1.27;1.27;;;16.10;65.80;;;;;;4968748;28;20181;-78
2023/12/01 03:41:15;;;;;;;1.20;1.10;;;16.00;65.50;;;;;;4970557;28;20130;-78
2023/12/01 03:43:40;;;;;;;1.00;1.00;;;16.00;65.80;;;;;;4970181;28;20146;-78
2023/12/01 03:46:06;;;;;;;1.00;1.00;;;16.00;65.80;;;;;;4968208;28;20035;-79
2023/12/01 03:48:36;;;;;;;1.00;1.00;;;16.00;65.70;;;;;;4969976;28;21319;-78
2023/12/01 03:51:02;;;;;;;1.10;1.10;;;16.00;65.70;;;;;;4969318;28;20051;-78
2023/12/01 03:53:30;;;;;;;1.30;1.30;;;16.00;65.80;;;;;;4967607;28;20047;-78
2023/12/01 03:55:57;;;;;;;1.23;1.20;;;16.00;65.80;;;;;;4954132;28;20122;-77
2023/12/01 03:58:24;;;;;;;0.80;0.80;;;16.00;65.70;;;;;;4970214;28;20177;-77
2023/12/01 04:00:51;;;;;;;1.20;1.20;;;16.00;65.60;;;;;;4967970;28;20050;-78
2023/12/01 04:03:17;;;;;;;0.90;0.90;;;16.00;65.90;;;;;;4968751;28;20109;-78
2023/12/01 04:05:42;;;;;;;1.08;1.08;;;16.00;65.90;;;;;;4968693;28;20030;-78
2023/12/01 04:08:08;;;;;;;0.77;0.77;;;16.00;65.70;;;;;;4954751;28;20043;-78
2023/12/01 04:10:33;;;;;;;0.60;0.60;;;16.00;65.80;;;;;;4969447;28;20096;-78
2023/12/01 04:13:07;;;;;;;0.90;0.90;;;16.00;66.00;;;;;;4954086;28;20067;-78
2023/12/01 04:15:33;;;;;;;0.80;0.80;;;16.00;65.70;;;;;;4966813;28;20047;-78
2023/12/01 04:18:06;;;;;;;0.93;0.93;;;16.00;65.80;;;;;;4968047;28;20058;-78
2023/12/01 04:20:38;;;;;;;1.25;1.25;;;16.00;65.90;;;;;;4981379;28;20042;-78
2023/12/01 04:23:10;;;;;;;1.08;1.08;;;16.00;66.70;;;;;;4984683;28;20039;-78
2023/12/01 04:25:39;;;;;;;1.20;1.20;;;16.00;65.80;;;;;;4968563;28;20492;-78
2023/12/01 04:28:06;;;;;;;0.90;0.90;;;16.00;65.80;;;;;;4968281;28;20127;-78
2023/12/01 04:30:35;;;;;;;0.82;0.82;;;16.00;65.80;;;;;;4953362;28;20047;-78
2023/12/01 04:33:01;;;;;;;1.10;1.10;;;16.00;65.90;;;;;;4968250;28;20062;-77
2023/12/01 04:35:28;;;;;;;1.05;1.05;;;15.90;65.80;;;;;;4968718;28;20047;-77
2023/12/01 04:37:54;;;;;;;0.90;0.90;;;15.90;65.70;;;;;;4970120;28;20051;-77
2023/12/01 04:40:20;;;;;;;0.90;0.90;;;15.90;65.70;;;;;;4967753;28;20040;-77
2023/12/01 04:42:50;;;;;;;1.00;1.00;;;16.00;65.70;;;;;;4968424;28;20045;-78
2023/12/01 04:45:17;;;;;;;0.90;0.90;;;15.90;65.70;;;;;;4967668;28;20069;-78
2023/12/01 04:47:44;;;;;;;0.75;0.75;;;15.90;65.80;;;;;;4965845;28;20039;-78
2023/12/01 04:50:14;;;;;;;0.85;0.85;;;15.90;65.70;;;;;;4969151;28;20047;-78
2023/12/01 04:52:39;;;;;;;0.75;0.75;;;15.90;66.50;;;;;;4968481;28;20058;-78
2023/12/01 04:55:06;;;;;;;1.20;1.20;;;15.90;65.70;;;;;;4966294;28;20052;-77
2023/12/01 04:57:33;;;;;;;0.93;0.93;;;15.90;65.70;;;;;;4949981;28;20051;-78
2023/12/01 04:59:58;;;;;;;1.00;1.00;;;15.90;65.70;;;;;;4965987;28;20051;-78
2023/12/01 05:02:24;;;;;;;0.98;0.98;;;15.90;65.90;;;;;;4964156;28;20049;-78
2023/12/01 05:04:50;;;;;;;1.38;1.30;;;15.90;66.00;;;;;;4968571;28;20047;-78
2023/12/01 05:07:16;;;;;;;0.85;0.85;;;15.90;65.80;;;;;;4967957;28;20054;-78
2023/12/01 05:09:42;;;;;;;0.80;0.80;;;15.90;65.70;;;;;;4963298;28;20058;-77
2023/12/01 05:12:07;;;;;;;1.13;1.13;;;15.90;65.80;;;;;;4967208;28;20046;-77
2023/12/01 05:14:33;;;;;;;1.08;1.08;;;15.90;65.90;;;;;;4969161;28;20527;-78
2023/12/01 05:16:59;;;;;;;0.90;0.90;;;15.90;65.90;;;;;;4965863;28;20035;-77
2023/12/01 05:19:25;;;;;;;0.70;0.70;;;15.90;65.80;;;;;;4965946;28;20047;-78
2023/12/01 05:21:51;;;;;;;0.80;0.80;;;15.90;65.80;;;;;;4967464;28;20583;-77
2023/12/01 05:24:16;;;;;;;1.10;1.10;;;15.90;65.90;;;;;;4966982;28;20034;-77
2023/12/01 05:26:42;;;;;;;0.85;0.85;;;15.90;65.80;;;;;;4966972;28;20053;-78
2023/12/01 05:29:13;;;;;;;0.85;0.85;;;15.90;66.00;;;;;;4968335;28;20066;-78
2023/12/01 05:31:39;;;;;;;1.70;0.80;;;15.90;65.80;;;;;;4965615;28;20125;-79
2023/12/01 05:34:05;;;;;;;0.95;0.95;;;15.90;65.80;;;;;;4965008;28;20050;-78
2023/12/01 05:36:31;;;;;;;1.10;1.10;;;15.90;65.90;;;;;;4965865;28;20051;-77
2023/12/01 05:38:57;;;;;;;0.98;0.98;;;15.90;65.80;;;;;;4968540;28;20404;-78
2023/12/01 05:41:22;;;;;;;0.85;0.85;;;15.80;65.80;;;;;;4964216;28;20058;-77
2023/12/01 05:43:48;;;;;;;0.85;0.85;;;15.90;65.80;;;;;;4968845;28;20035;-77
2023/12/01 05:46:14;;;;;;;0.70;0.70;;;15.90;65.90;;;;;;4963493;28;20046;-78
2023/12/01 05:48:39;;;;;;;0.80;0.80;;;15.80;65.80;;;;;;4965132;28;20450;-78
2023/12/01 05:51:05;;;;;;;0.90;0.90;;;15.80;65.80;;;;;;4966641;28;20071;-78
2023/12/01 05:53:34;;;;;;;1.27;0.85;;;15.80;65.80;;;;;;4966834;28;20047;-78
2023/12/01 05:56:00;;;;;;;0.80;0.80;;;15.80;65.90;;;;;;4965936;28;20406;-78
2023/12/01 05:58:26;;;;;;;1.00;1.00;;;15.80;65.90;;;;;;4966260;28;20061;-78
2023/12/01 06:00:52;;;;;;;1.00;1.00;;;15.80;65.80;;;;;;4965687;28;20421;-78
2023/12/01 06:03:19;;;;;;;0.80;0.80;;;15.80;65.80;;;;;;4964860;28;20043;-79
2023/12/01 06:05:46;;;;;;;1.00;1.00;;;15.80;65.90;;;;;;4966625;28;20456;-79
2023/12/01 06:08:12;;;;;;;0.73;0.73;;;15.80;66.10;;;;;;4966170;28;20046;-78
2023/12/01 06:10:37;;;;;;;0.85;0.85;;;15.80;65.70;;;;;;4968770;28;20050;-78
2023/12/01 06:13:04;;;;;;;0.90;0.90;;;15.80;66.00;;;;;;4966170;28;20055;-79
2023/12/01 06:15:29;;;;;;;0.75;0.75;;;15.80;65.80;;;;;;4969375;28;20417;-80
2023/12/01 06:17:59;;;;;;;0.82;0.82;;;15.90;65.90;;;;;;4966570;28;20536;-79
2023/12/01 06:20:24;;;;;;;0.80;0.80;;;15.90;65.90;;;;;;4964229;28;20048;-80
2023/12/01 06:22:50;;;;;;;0.70;0.70;;;15.80;65.90;;;;;;4965384;28;20528;-79
2023/12/01 06:25:18;;;;;;;0.90;0.90;;;15.80;66.00;;;;;;4958326;28;20536;-79
2023/12/01 06:27:45;;;;;;;0.80;0.80;;;15.80;66.30;;;;;;4965304;28;20134;-79
2023/12/01 06:30:12;;;;;;;1.75;1.00;;;15.90;66.20;;;;;;4957694;28;20150;-79
2023/12/01 06:32:44;;;;;;;2.05;1.00;;;15.90;66.10;;;;;;4957218;28;20529;-79
2023/12/01 06:35:12;;;;;;;1.85;1.20;;;15.80;66.00;;;;;;4962487;28;20038;-79
2023/12/01 06:37:38;;;;;;;4.07;3.72;;;15.90;66.10;;;;;;4615443;28;10000206;-80
2023/12/01 06:40:11;;;;;;;5.13;4.65;;;15.90;66.30;;;;;;4962268;28;20539;-79
2023/12/01 06:43:09;;;;;;;3.35;3.15;;;15.90;65.70;;;;;;4961611;28;20391;-79
2023/12/01 06:45:36;;;;;;;1.75;1.65;;;15.90;66.50;;;;;;4960782;28;20424;-79
2023/12/01 06:48:01;;;;;;;1.58;1.52;;;16.00;66.30;;;;;;4946864;28;20054;-78
2023/12/01 06:50:27;;;;;;;1.20;1.20;;;16.00;66.60;;;;;;4964124;28;20517;-79
2023/12/01 06:52:52;;;;;;;1.58;1.42;;;16.00;66.50;;;;;;4965161;28;20061;-79
2023/12/01 06:55:18;;;;;;;2.90;1.33;;;16.10;66.60;;;;;;4959746;28;20061;-79
2023/12/01 06:57:45;;;;;;;1.35;1.35;;;16.10;66.40;;;;;;4962427;28;20055;-79
2023/12/01 07:00:29;;;;;;;1.58;1.48;;;16.10;66.20;;;;;;4961757;28;20138;-79
2023/12/01 07:03:02;;;;;;;1.55;1.45;;;16.20;66.20;;;;;;4950669;28;20170;-80
2023/12/01 07:05:29;;;;;;;1.33;1.23;;;16.20;66.20;;;;;;4964006;28;20051;-79
2023/12/01 07:07:57;;;;;;;1.98;1.88;;;16.20;65.90;;;;;;4962147;28;20055;-79
2023/12/01 07:10:23;;;;;;;1.27;1.27;;;16.20;65.90;;;;;;4957803;28;20055;-79
2023/12/01 07:12:49;;;;;;;1.35;1.23;;;16.30;65.90;;;;;;4961577;28;20054;-79
2023/12/01 07:15:20;;;;;;;1.50;1.40;;;16.30;65.80;;;;;;4955003;28;20605;-79
2023/12/01 07:17:47;;;;;;;1.55;1.50;;;16.30;65.70;;;;;;4961120;28;20053;-79
2023/12/01 07:20:16;;;;;;;1.35;1.25;;;16.30;65.60;;;;;;4964824;28;20047;-79
2023/12/01 07:22:44;;;;;;;1.85;1.23;;;16.30;65.40;;;;;;4966538;28;20165;-78
2023/12/01 07:25:10;;;;;;;1.42;1.33;;;16.40;66.00;;;;;;4962031;28;20062;-78
2023/12/01 07:27:39;;;;;;;1.13;1.10;;;16.40;65.80;;;;;;4959437;28;20077;-79
2023/12/01 07:30:06;;;;;;;1.42;1.40;;;16.40;65.30;;;;;;4957815;28;20047;-79
2023/12/01 07:32:32;;;;;;;1.30;1.20;;;16.40;65.20;;;;;;4946735;28;20045;-78
2023/12/01 07:34:57;;;;;;;1.40;1.30;;;16.40;65.40;;;;;;4961202;28;20085;-78
2023/12/01 07:37:23;;;;;;;1.00;1.00;;;16.40;65.20;;;;;;4956289;28;20149;-78
2023/12/01 07:39:48;;;;;;;1.30;1.20;;;16.50;65.20;;;;;;4957299;28;20058;-78
2023/12/01 07:42:14;;;;;;;1.60;1.55;;;16.50;65.10;;;;;;4958681;28;20042;-78
2023/12/01 07:44:39;;;;;;;3.42;1.10;;;16.50;65.00;;;;;;4955597;28;20051;-78
2023/12/01 07:47:08;;;;;;;1.30;1.30;;;16.50;65.10;;;;;;4939866;28;20158;-79
2023/12/01 07:49:34;;;;;;;1.80;1.20;;;16.50;65.10;;;;;;4944984;28;20728;-79
2023/12/01 07:52:01;;;;;;;1.23;1.13;;;16.50;65.00;;;;;;4957028;28;20043;-79
2023/12/01 07:54:27;;;;;;;1.15;1.15;;;16.50;64.90;;;;;;4955437;28;20047;-79
2023/12/01 07:56:53;;;;;;;2.85;1.40;;;16.50;65.00;;;;;;4938715;28;20101;-78
2023/12/01 07:59:21;;;;;;;1.60;1.50;;;16.50;65.00;;;;;;4953117;28;20442;-79
2023/12/01 08:01:47;;;;;;;1.20;1.20;;;16.60;64.90;;;;;;4966711;28;20047;-77
2023/12/01 08:04:13;;;;;;;1.92;1.83;;;16.60;64.80;;;;;;4957512;28;20088;-78
2023/12/01 08:06:39;;;;;;;1.85;1.75;;;16.60;64.60;;;;;;4963183;28;20047;-77
2023/12/01 08:09:04;;;;;;;2.78;1.85;;;16.60;64.60;;;;;;4962455;28;20043;-77
2023/12/01 08:11:30;;;;;;;1.50;1.40;;;16.60;64.80;;;;;;4962968;28;20105;-78
2023/12/01 08:13:56;;;;;;;2.30;1.40;;;16.60;64.50;;;;;;4961180;28;20401;-78
2023/12/01 08:16:21;;;;;;;1.50;1.40;;;16.60;64.60;;;;;;4959893;28;20093;-78
2023/12/01 08:18:47;;;;;;;2.42;1.35;;;16.60;64.60;;;;;;4961627;28;20508;-77
2023/12/01 08:21:14;;;;;;;1.70;1.45;;;16.60;64.60;;;;;;4961509;28;20039;-78
2023/12/01 08:23:40;;;;;;;1.95;1.83;;;16.60;64.60;;;;;;4967523;28;20089;-77
2023/12/01 08:26:08;;;;;;;1.63;1.55;;;16.60;64.80;;;;;;4965313;28;20492;-77
2023/12/01 08:28:34;;;;;;;1.73;1.63;;;16.70;64.80;;;;;;4955583;28;20058;-79
2023/12/01 08:30:59;;;;;;;1.42;1.40;;;16.70;64.60;;;;;;4950658;28;20217;-80
2023/12/01 08:33:25;;;;;;;1.35;1.25;;;16.80;65.30;;;;;;4966408;28;20047;-79
2023/12/01 08:35:53;;;;;;;1.48;1.40;;;16.80;64.40;;;;;;4965369;28;20047;-80
2023/12/01 08:38:19;;;;;;;1.83;1.15;;;16.80;64.10;;;;;;4968277;28;20572;-80
2023/12/01 08:40:45;;;;;;;3.78;1.52;;;16.80;64.30;;;;;;4953223;28;20047;-80
2023/12/01 08:43:11;;;;;;;1.65;1.50;;;16.80;63.90;;;;;;4966515;28;20046;-78
2023/12/01 08:45:36;;;;;;;2.63;1.30;;;16.90;63.80;;;;;;4965687;28;20101;-80
2023/12/01 08:48:02;;;;;;;1.50;1.40;;;16.90;63.80;;;;;;4963809;28;20043;-81
2023/12/01 08:50:28;;;;;;;1.50;1.40;;;16.90;63.60;;;;;;4960161;28;21183;-80
2023/12/01 08:53:03;;;;;;;1.52;1.42;;;16.90;63.60;;;;;;4962988;28;20489;-79
2023/12/01 08:55:29;;;;;;;1.60;1.50;;;16.90;63.80;;;;;;4945645;28;20050;-79
2023/12/01 08:57:54;;;;;;;1.23;1.23;;;16.90;63.40;;;;;;4970692;28;20441;-79
2023/12/01 09:00:23;;;;;;;1.17;1.17;;;16.90;63.30;;;;;;4969366;28;20054;-79
2023/12/01 09:02:49;;;;;;;1.40;1.30;;;17.00;63.40;;;;;;4969598;28;20061;-80
2023/12/01 09:05:16;;;;;;;1.80;1.30;;;17.00;63.40;;;;;;4968813;28;20038;-80
2023/12/01 09:07:41;;;;;;;1.40;1.30;;;17.00;63.40;;;;;;4969127;28;20129;-80
2023/12/01 09:10:07;;;;;;;1.27;1.20;;;17.00;63.30;;;;;;4970124;28;20533;-80
2023/12/01 09:12:33;;;;;;;2.88;1.27;;;17.00;63.50;;;;;;4968595;28;20571;-80
2023/12/01 09:14:58;;;;;;;1.10;1.10;;;17.00;63.50;;;;;;4968047;28;20406;-79
2023/12/01 09:17:25;;;;;;;1.65;1.55;;;17.00;63.20;;;;;;4966579;28;20413;-79
2023/12/01 09:19:50;;;;;;;1.30;1.30;;;17.00;63.20;;;;;;4969525;28;20061;-79
2023/12/01 09:22:16;;;;;;;1.48;1.08;;;17.00;63.20;;;;;;4965267;28;20501;-79
2023/12/01 09:24:42;;;;;;;1.42;1.33;;;17.10;63.00;;;;;;4964931;28;20062;-79
2023/12/01 09:27:07;;;;;;;1.30;1.30;;;17.00;63.00;;;;;;4960317;28;20066;-80
2023/12/01 09:29:33;;;;;;;1.27;1.27;;;17.00;64.00;;;;;;4962652;28;20046;-79
2023/12/01 09:31:58;;;;;;;2.05;1.50;;;17.10;63.10;;;;;;4963561;28;20031;-78
2023/12/01 09:34:24;;;;;;;2.45;1.75;;;17.10;63.00;;;;;;4962166;28;20058;-79
2023/12/01 09:36:50;;;;;;;1.85;1.75;;;17.20;63.00;;;;;;4964378;28;20034;-79
2023/12/01 09:39:16;;;;;;;1.90;1.80;;;17.20;63.10;;;;;;4961925;28;20101;-79
2023/12/01 09:41:41;;;;;;;2.20;2.10;;;17.20;62.70;;;;;;4963899;28;20501;-79
2023/12/01 09:44:07;;;;;;;2.10;2.00;;;17.20;62.60;;;;;;4947780;28;20151;-80
2023/12/01 09:46:35;;;;;;;1.90;1.80;;;17.30;62.30;;;;;;4961097;28;20130;-79
2023/12/01 09:49:04;;;;;;;1.88;1.77;;;17.40;62.50;;;;;;4962211;28;20091;-79
2023/12/01 09:51:36;;;;;;;2.08;1.98;;;17.40;62.10;;;;;;4961177;28;20046;-79
2023/12/01 09:54:02;;;;;;;2.13;2.00;;;17.40;62.00;;;;;;4960523;28;20113;-79
2023/12/01 09:56:28;;;;;;;2.08;1.98;;;17.50;61.80;;;;;;4965176;28;20074;-79
2023/12/01 09:58:55;;;;;;;2.65;2.40;;;17.60;61.70;;;;;;4952625;28;20062;-79
2023/12/01 10:01:21;;;;;;;2.30;2.10;;;17.70;61.80;;;;;;4965243;28;20070;-79
2023/12/01 10:03:47;;;;;;;3.05;1.70;;;17.60;61.60;;;;;;4966107;28;20082;-79
2023/12/01 10:06:12;;;;;;;2.05;1.95;;;17.70;61.30;;;;;;4964184;28;20130;-79
2023/12/01 10:08:38;;;;;;;1.80;1.70;;;17.70;61.10;;;;;;4948742;28;20057;-79
2023/12/01 10:11:45;;;;;;;1.90;1.80;;;17.70;61.30;;;;;;4963297;28;20039;-79
2023/12/01 10:14:25;;;;;;;2.95;1.60;;;17.70;61.10;;;;;;4967496;28;20496;-80
2023/12/01 10:16:51;;;;;;;1.63;1.52;;;17.80;61.00;;;;;;4960842;28;20172;-81
2023/12/01 10:19:17;;;;;;;1.65;1.55;;;17.90;60.90;;;;;;4962388;28;20130;-80
2023/12/01 10:21:44;;;;;;;2.03;1.40;;;18.00;60.70;;;;;;4966556;28;20038;-79
2023/12/01 10:24:16;;;;;;;1.73;1.63;;;18.00;61.30;;;;;;4956959;28;20073;-79
2023/12/01 10:26:44;;;;;;;1.67;1.58;;;18.00;60.50;;;;;;4968067;28;20039;-80
2023/12/01 10:29:30;;;;;;;1.30;1.30;;;18.10;60.50;;;;;;4963843;28;20386;-79
2023/12/01 10:32:00;;;;;;;1.90;1.50;;;18.10;60.50;;;;;;4962481;28;20035;-79
2023/12/01 10:34:26;;;;;;;1.70;1.60;;;18.10;60.40;;;;;;4966259;28;20489;-79
2023/12/01 10:36:52;;;;;;;1.73;1.63;;;18.20;60.30;;;;;;4965249;28;20045;-80
2023/12/01 10:39:21;;;;;;;1.40;1.30;;;18.20;60.10;;;;;;4969350;28;20050;-79
2023/12/01 10:41:47;;;;;;;1.60;1.50;;;18.20;60.10;;;;;;4973938;28;20047;-80
2023/12/01 10:44:19;;;;;;;1.60;1.50;;;18.20;60.40;;;;;;4956155;28;20038;-80
2023/12/01 10:46:48;;;;;;;1.48;1.48;;;18.20;60.30;;;;;;4970378;28;20115;-80
2023/12/01 10:49:15;;;;;;;1.33;1.20;;;18.20;60.40;;;;;;4974560;28;20050;-80
2023/12/01 10:51:41;;;;;;;2.05;1.33;;;18.20;60.30;;;;;;4972899;28;20123;-80
2023/12/01 10:54:09;;;;;;;1.45;1.35;;;18.20;60.30;;;;;;4971509;28;20043;-80
2023/12/01 10:56:35;;;;;;;1.40;1.30;;;18.20;60.40;;;;;;4967557;28;20141;-80
2023/12/01 10:59:01;;;;;;;2.25;1.50;;;18.20;60.50;;;;;;4966952;28;20051;-81
2023/12/01 11:01:27;;;;;;;1.55;1.45;;;18.20;60.80;;;;;;4963212;28;20041;-80
2023/12/01 11:03:54;;;;;;;1.30;1.20;;;18.20;60.30;;;;;;4966143;28;20448;-81
2023/12/01 11:06:33;;;;;;;1.25;1.25;;;18.20;60.40;;;;;;4970304;28;20031;-81
2023/12/01 11:09:17;;;;;;;1.13;1.13;;;18.20;60.70;;;;;;4953104;28;20454;-81
2023/12/01 11:11:48;;;;;;;;;;;18.20;60.40;;;;;;4966236;28;20105;-81
2023/12/01 11:14:18;;;;;;;1.40;1.40;;;18.20;60.50;;;;;;4978535;28;19917;-80
2023/12/01 11:16:44;;;;;;;1.15;1.15;;;18.20;60.50;;;;;;4967612;28;20058;-81
2023/12/01 11:19:12;;;;;;;1.23;1.20;;;18.20;60.50;;;;;;4951813;28;20125;-81
2023/12/01 11:21:44;;;;;;;1.10;1.10;;;18.20;60.50;;;;;;4968646;28;20134;-81
2023/12/01 11:24:26;;;;;;;1.00;1.00;;;18.20;60.50;;;;;;4969771;28;20054;-81
2023/12/01 11:26:52;;;;;;;1.13;1.13;;;18.20;60.50;;;;;;4966759;28;20027;-79
2023/12/01 11:29:34;;;;;;;1.10;1.10;;;18.20;60.50;;;;;;4621371;28;9999750;-78
2023/12/01 11:32:00;;;;;;;1.05;1.05;;;18.20;60.60;;;;;;4963729;28;20113;-80
2023/12/01 11:34:26;;;;;;;1.15;1.15;;;18.20;60.90;;;;;;4962647;28;20508;-79
2023/12/01 11:36:52;;;;;;;1.05;1.05;;;18.20;60.70;;;;;;4957160;28;20148;-78
2023/12/01 11:39:29;;;;;;;1.05;1.05;;;18.20;61.00;;;;;;4962641;28;20105;-78
2023/12/01 11:42:09;;;;;;;1.35;1.23;;;18.20;60.70;;;;;;4967490;28;20045;-78
2023/12/01 11:44:37;;;;;;;1.17;1.17;;;18.20;60.60;;;;;;4967329;28;22143;-78
2023/12/01 11:47:04;;;;;;;1.48;1.38;;;18.30;60.70;;;;;;4964773;28;20047;-78
2023/12/01 11:49:35;;;;;;;1.33;1.23;;;18.30;60.70;;;;;;4967454;28;20078;-78
2023/12/01 11:52:01;;;;;;;1.20;1.20;;;18.30;60.70;;;;;;4951096;28;20462;-78
2023/12/01 11:54:27;;;;;;;1.25;1.20;;;18.30;60.90;;;;;;4967654;28;20401;-78
2023/12/01 11:56:55;;;;;;;0.93;0.93;;;18.20;60.70;;;;;;4966529;28;20562;-78
2023/12/01 11:59:21;;;;;;;1.33;1.33;;;18.20;60.80;;;;;;4967412;28;20055;-78
2023/12/01 12:01:46;;;;;;;1.08;1.08;;;18.20;60.80;;;;;;4986809;28;20135;-78
2023/12/01 12:04:16;;;;;;;1.60;1.50;;;18.20;60.70;;;;;;4971733;28;20138;-78
2023/12/01 12:06:43;;;;;;;1.13;1.13;;;18.20;61.50;;;;;;4971108;28;20130;-78
2023/12/01 12:09:08;;;;;;;1.40;1.40;;;18.20;60.60;;;;;;4970886;28;20081;-78
2023/12/01 12:11:35;;;;;;;1.75;1.65;;;18.20;60.90;;;;;;4970450;28;20450;-78
2023/12/01 12:14:01;;;;;;;1.63;1.52;;;18.30;60.50;;;;;;4971813;28;20118;-78
2023/12/01 12:16:27;;;;;;;1.17;1.17;;;18.30;60.50;;;;;;4967886;28;20042;-78
2023/12/01 12:18:53;;;;;;;1.20;1.20;;;18.40;60.30;;;;;;4967696;28;20082;-78
2023/12/01 12:21:18;;;;;;;1.20;1.20;;;18.40;60.50;;;;;;4967903;28;20066;-78
2023/12/01 12:23:45;;;;;;;1.50;1.40;;;18.30;60.60;;;;;;4953035;28;20521;-78
2023/12/01 12:26:23;;;;;;;1.10;1.10;;;18.30;60.50;;;;;;4967114;28;20034;-78
2023/12/01 12:28:53;;;;;;;1.20;1.20;;;18.30;60.60;;;;;;4969706;28;20050;-78
2023/12/01 12:31:19;;;;;;;0.90;0.90;;;18.30;60.50;;;;;;4971187;28;20038;-78
2023/12/01 12:33:46;;;;;;;1.42;1.40;;;18.30;60.70;;;;;;4968974;28;20085;-78
2023/12/01 12:36:12;;;;;;;1.30;1.20;;;18.30;60.80;;;;;;4968003;28;20055;-78
2023/12/01 12:38:38;;;;;;;0.98;0.98;;;18.30;60.60;;;;;;4966265;28;20070;-78
2023/12/01 12:41:04;;;;;;;1.20;1.20;;;18.30;60.80;;;;;;4971293;28;20551;-78
2023/12/01 12:43:32;;;;;;;1.10;1.10;;;18.20;60.50;;;;;;4962494;28;20125;-78
2023/12/01 12:45:59;;;;;;;0.93;0.93;;;18.30;60.80;;;;;;4965986;28;20043;-78
2023/12/01 12:48:26;;;;;;;0.90;0.90;;;18.30;60.70;;;;;;4967341;28;20064;-78